sensor_id;sensor_type;location;lat;lon;timestamp;P1;durP1;ratioP1;P2;durP2;ratioP2
35298;SDS011;21415;48.054;16.646;2022-10-16T00:01:12;15.68;;;13.23;;
35298;SDS011;21415;48.054;16.646;2022-10-16T00:03:39;19.80;;;15.98;;
35298;SDS011;21415;48.054;16.646;2022-10-16T00:06:06;21.83;;;16.15;;
35298;SDS011;21415;48.054;16.646;2022-10-16T00:08:33;19.20;;;15.70;;
35298;SDS011;21415;48.054;16.646;2022-10-16T00:13:37;17.63;;;14.60;;
35298;SDS011;21415;48.054;16.646;2022-10-16T00:16:04;21.83;;;15.30;;
35298;SDS011;21415;48.054;16.646;2022-10-16T00:18:32;18.67;;;14.70;;
35298;SDS011;21415;48.054;16.646;2022-10-16T00:23:28;18.00;;;14.38;;
35298;SDS011;21415;48.054;16.646;2022-10-16T00:25:57;19.92;;;15.00;;
35298;SDS011;21415;48.054;16.646;2022-10-16T00:28:25;17.80;;;15.27;;
35298;SDS011;21415;48.054;16.646;2022-10-16T00:38:09;20.83;;;13.27;;
35298;SDS011;21415;48.054;16.646;2022-10-16T00:40:35;18.55;;;13.52;;
35298;SDS011;21415;48.054;16.646;2022-10-16T00:43:00;19.08;;;13.98;;
35298;SDS011;21415;48.054;16.646;2022-10-16T00:45:26;18.42;;;15.38;;
35298;SDS011;21415;48.054;16.646;2022-10-16T00:47:52;16.95;;;13.55;;
35298;SDS011;21415;48.054;16.646;2022-10-16T00:50:28;23.17;;;14.50;;
35298;SDS011;21415;48.054;16.646;2022-10-16T00:52:56;30.58;;;14.32;;
35298;SDS011;21415;48.054;16.646;2022-10-16T00:55:24;19.38;;;14.77;;
35298;SDS011;21415;48.054;16.646;2022-10-16T00:57:50;20.23;;;14.23;;
35298;SDS011;21415;48.054;16.646;2022-10-16T01:00:19;18.58;;;14.32;;
35298;SDS011;21415;48.054;16.646;2022-10-16T01:02:57;17.02;;;13.20;;
35298;SDS011;21415;48.054;16.646;2022-10-16T01:05:33;17.10;;;13.75;;
35298;SDS011;21415;48.054;16.646;2022-10-16T01:08:16;17.80;;;13.20;;
35298;SDS011;21415;48.054;16.646;2022-10-16T01:10:48;17.73;;;13.25;;
35298;SDS011;21415;48.054;16.646;2022-10-16T01:13:27;20.20;;;13.65;;
35298;SDS011;21415;48.054;16.646;2022-10-16T01:16:07;15.30;;;12.40;;
35298;SDS011;21415;48.054;16.646;2022-10-16T01:18:54;16.33;;;12.35;;
35298;SDS011;21415;48.054;16.646;2022-10-16T01:21:28;18.60;;;13.20;;
35298;SDS011;21415;48.054;16.646;2022-10-16T01:29:52;17.45;;;12.77;;
35298;SDS011;21415;48.054;16.646;2022-10-16T01:35:02;16.42;;;12.75;;
35298;SDS011;21415;48.054;16.646;2022-10-16T01:37:50;14.52;;;11.75;;
35298;SDS011;21415;48.054;16.646;2022-10-16T01:40:27;18.52;;;13.27;;
35298;SDS011;21415;48.054;16.646;2022-10-16T01:42:56;18.83;;;13.50;;
35298;SDS011;21415;48.054;16.646;2022-10-16T01:45:33;17.58;;;12.52;;
35298;SDS011;21415;48.054;16.646;2022-10-16T01:48:00;15.10;;;12.60;;
35298;SDS011;21415;48.054;16.646;2022-10-16T01:50:31;15.70;;;12.05;;
35298;SDS011;21415;48.054;16.646;2022-10-16T01:53:00;16.58;;;13.77;;
35298;SDS011;21415;48.054;16.646;2022-10-16T01:55:29;17.67;;;14.05;;
35298;SDS011;21415;48.054;16.646;2022-10-16T01:58:01;18.25;;;14.20;;
35298;SDS011;21415;48.054;16.646;2022-10-16T02:00:30;19.98;;;14.90;;
35298;SDS011;21415;48.054;16.646;2022-10-16T02:02:56;18.77;;;14.45;;
35298;SDS011;21415;48.054;16.646;2022-10-16T02:05:26;20.00;;;14.45;;
35298;SDS011;21415;48.054;16.646;2022-10-16T02:08:04;20.00;;;14.63;;
35298;SDS011;21415;48.054;16.646;2022-10-16T02:10:30;18.75;;;14.60;;
35298;SDS011;21415;48.054;16.646;2022-10-16T02:12:59;19.98;;;15.85;;
35298;SDS011;21415;48.054;16.646;2022-10-16T02:15:31;21.10;;;15.30;;
35298;SDS011;21415;48.054;16.646;2022-10-16T02:17:57;20.17;;;15.70;;
35298;SDS011;21415;48.054;16.646;2022-10-16T02:20:25;22.15;;;15.60;;
35298;SDS011;21415;48.054;16.646;2022-10-16T02:22:52;18.67;;;15.00;;
35298;SDS011;21415;48.054;16.646;2022-10-16T02:25:24;25.27;;;16.05;;
35298;SDS011;21415;48.054;16.646;2022-10-16T02:28:03;18.08;;;15.02;;
35298;SDS011;21415;48.054;16.646;2022-10-16T02:30:35;22.50;;;16.25;;
35298;SDS011;21415;48.054;16.646;2022-10-16T02:33:08;20.50;;;15.25;;
35298;SDS011;21415;48.054;16.646;2022-10-16T02:35:38;20.20;;;15.32;;
35298;SDS011;21415;48.054;16.646;2022-10-16T02:38:06;21.35;;;15.38;;
35298;SDS011;21415;48.054;16.646;2022-10-16T02:40:33;18.80;;;15.63;;
35298;SDS011;21415;48.054;16.646;2022-10-16T02:47:51;18.60;;;13.90;;
35298;SDS011;21415;48.054;16.646;2022-10-16T02:50:17;21.05;;;15.50;;
35298;SDS011;21415;48.054;16.646;2022-10-16T02:52:43;19.42;;;16.17;;
35298;SDS011;21415;48.054;16.646;2022-10-16T02:55:08;19.15;;;15.88;;
35298;SDS011;21415;48.054;16.646;2022-10-16T02:57:34;20.70;;;16.25;;
35298;SDS011;21415;48.054;16.646;2022-10-16T03:00:03;20.27;;;15.75;;
35298;SDS011;21415;48.054;16.646;2022-10-16T03:02:30;26.10;;;16.10;;
35298;SDS011;21415;48.054;16.646;2022-10-16T03:04:55;21.20;;;15.45;;
35298;SDS011;21415;48.054;16.646;2022-10-16T03:07:21;20.90;;;15.57;;
35298;SDS011;21415;48.054;16.646;2022-10-16T03:09:47;17.25;;;14.13;;
35298;SDS011;21415;48.054;16.646;2022-10-16T03:12:13;19.95;;;16.40;;
35298;SDS011;21415;48.054;16.646;2022-10-16T03:14:38;22.33;;;15.90;;
35298;SDS011;21415;48.054;16.646;2022-10-16T03:17:05;20.33;;;16.50;;
35298;SDS011;21415;48.054;16.646;2022-10-16T03:19:31;19.88;;;16.23;;
35298;SDS011;21415;48.054;16.646;2022-10-16T03:21:57;21.05;;;16.50;;
35298;SDS011;21415;48.054;16.646;2022-10-16T03:24:23;21.98;;;16.33;;
35298;SDS011;21415;48.054;16.646;2022-10-16T03:26:48;21.70;;;17.75;;
35298;SDS011;21415;48.054;16.646;2022-10-16T03:29:14;24.15;;;17.83;;
35298;SDS011;21415;48.054;16.646;2022-10-16T03:31:40;24.98;;;17.73;;
35298;SDS011;21415;48.054;16.646;2022-10-16T03:34:23;22.20;;;17.30;;
35298;SDS011;21415;48.054;16.646;2022-10-16T03:36:49;22.63;;;17.00;;
35298;SDS011;21415;48.054;16.646;2022-10-16T03:39:15;21.33;;;16.00;;
35298;SDS011;21415;48.054;16.646;2022-10-16T03:41:41;20.08;;;14.40;;
35298;SDS011;21415;48.054;16.646;2022-10-16T03:44:07;17.70;;;13.85;;
35298;SDS011;21415;48.054;16.646;2022-10-16T03:46:33;17.70;;;14.82;;
35298;SDS011;21415;48.054;16.646;2022-10-16T03:48:58;19.88;;;14.50;;
35298;SDS011;21415;48.054;16.646;2022-10-16T03:51:24;19.13;;;14.52;;
35298;SDS011;21415;48.054;16.646;2022-10-16T03:53:50;18.52;;;14.93;;
35298;SDS011;21415;48.054;16.646;2022-10-16T03:56:15;23.02;;;16.45;;
35298;SDS011;21415;48.054;16.646;2022-10-16T03:58:41;18.27;;;14.52;;
35298;SDS011;21415;48.054;16.646;2022-10-16T04:01:07;22.83;;;14.93;;
35298;SDS011;21415;48.054;16.646;2022-10-16T04:03:33;23.50;;;16.45;;
35298;SDS011;21415;48.054;16.646;2022-10-16T04:05:58;20.65;;;14.95;;
35298;SDS011;21415;48.054;16.646;2022-10-16T04:08:24;35.50;;;23.52;;
35298;SDS011;21415;48.054;16.646;2022-10-16T04:10:50;53.60;;;33.95;;
35298;SDS011;21415;48.054;16.646;2022-10-16T04:13:16;49.63;;;31.05;;
35298;SDS011;21415;48.054;16.646;2022-10-16T04:15:42;38.78;;;25.88;;
35298;SDS011;21415;48.054;16.646;2022-10-16T04:18:07;33.45;;;23.65;;
35298;SDS011;21415;48.054;16.646;2022-10-16T04:20:33;26.50;;;21.52;;
35298;SDS011;21415;48.054;16.646;2022-10-16T04:22:59;24.88;;;19.15;;
35298;SDS011;21415;48.054;16.646;2022-10-16T04:25:25;22.73;;;17.65;;
35298;SDS011;21415;48.054;16.646;2022-10-16T04:27:52;22.52;;;17.25;;
35298;SDS011;21415;48.054;16.646;2022-10-16T04:30:19;32.70;;;23.30;;
35298;SDS011;21415;48.054;16.646;2022-10-16T04:32:49;24.85;;;18.10;;
35298;SDS011;21415;48.054;16.646;2022-10-16T04:35:16;27.52;;;18.52;;
35298;SDS011;21415;48.054;16.646;2022-10-16T04:37:43;22.45;;;17.45;;
35298;SDS011;21415;48.054;16.646;2022-10-16T04:40:08;31.45;;;19.63;;
35298;SDS011;21415;48.054;16.646;2022-10-16T04:42:35;26.42;;;18.80;;
35298;SDS011;21415;48.054;16.646;2022-10-16T04:45:00;24.38;;;18.70;;
35298;SDS011;21415;48.054;16.646;2022-10-16T04:47:26;24.70;;;17.60;;
35298;SDS011;21415;48.054;16.646;2022-10-16T04:49:52;24.88;;;17.60;;
35298;SDS011;21415;48.054;16.646;2022-10-16T04:52:18;23.58;;;17.98;;
35298;SDS011;21415;48.054;16.646;2022-10-16T04:54:44;24.25;;;17.73;;
35298;SDS011;21415;48.054;16.646;2022-10-16T04:57:10;24.05;;;18.38;;
35298;SDS011;21415;48.054;16.646;2022-10-16T04:59:36;26.05;;;20.17;;
35298;SDS011;21415;48.054;16.646;2022-10-16T05:02:02;32.35;;;23.67;;
35298;SDS011;21415;48.054;16.646;2022-10-16T05:04:28;26.48;;;19.33;;
35298;SDS011;21415;48.054;16.646;2022-10-16T05:06:54;25.63;;;19.17;;
35298;SDS011;21415;48.054;16.646;2022-10-16T05:09:19;24.88;;;19.00;;
35298;SDS011;21415;48.054;16.646;2022-10-16T05:11:45;24.88;;;17.65;;
35298;SDS011;21415;48.054;16.646;2022-10-16T05:14:11;22.65;;;17.08;;
35298;SDS011;21415;48.054;16.646;2022-10-16T05:16:37;22.63;;;15.65;;
35298;SDS011;21415;48.054;16.646;2022-10-16T05:19:03;20.45;;;16.65;;
35298;SDS011;21415;48.054;16.646;2022-10-16T05:21:29;22.27;;;18.02;;
35298;SDS011;21415;48.054;16.646;2022-10-16T05:23:54;23.27;;;16.52;;
35298;SDS011;21415;48.054;16.646;2022-10-16T05:26:20;23.20;;;17.65;;
35298;SDS011;21415;48.054;16.646;2022-10-16T05:28:46;20.15;;;17.08;;
35298;SDS011;21415;48.054;16.646;2022-10-16T05:31:12;19.15;;;16.60;;
35298;SDS011;21415;48.054;16.646;2022-10-16T05:33:38;20.95;;;15.88;;
35298;SDS011;21415;48.054;16.646;2022-10-16T05:36:07;19.60;;;16.50;;
35298;SDS011;21415;48.054;16.646;2022-10-16T05:38:37;21.77;;;17.02;;
35298;SDS011;21415;48.054;16.646;2022-10-16T05:41:03;25.15;;;18.45;;
35298;SDS011;21415;48.054;16.646;2022-10-16T05:43:30;25.58;;;18.13;;
35298;SDS011;21415;48.054;16.646;2022-10-16T05:45:57;25.35;;;18.33;;
35298;SDS011;21415;48.054;16.646;2022-10-16T05:48:25;21.88;;;17.08;;
35298;SDS011;21415;48.054;16.646;2022-10-16T05:51:01;21.17;;;16.83;;
35298;SDS011;21415;48.054;16.646;2022-10-16T05:53:29;18.98;;;16.55;;
35298;SDS011;21415;48.054;16.646;2022-10-16T05:55:57;25.92;;;17.90;;
35298;SDS011;21415;48.054;16.646;2022-10-16T06:03:22;21.25;;;15.02;;
35298;SDS011;21415;48.054;16.646;2022-10-16T06:05:48;26.17;;;19.55;;
35298;SDS011;21415;48.054;16.646;2022-10-16T06:08:14;23.58;;;17.83;;
35298;SDS011;21415;48.054;16.646;2022-10-16T06:10:39;23.88;;;18.20;;
35298;SDS011;21415;48.054;16.646;2022-10-16T06:13:05;20.73;;;17.52;;
35298;SDS011;21415;48.054;16.646;2022-10-16T06:15:31;23.10;;;17.98;;
35298;SDS011;21415;48.054;16.646;2022-10-16T06:17:56;22.25;;;17.63;;
35298;SDS011;21415;48.054;16.646;2022-10-16T06:20:22;25.15;;;17.63;;
35298;SDS011;21415;48.054;16.646;2022-10-16T06:22:48;26.23;;;18.40;;
35298;SDS011;21415;48.054;16.646;2022-10-16T06:25:14;26.45;;;18.30;;
35298;SDS011;21415;48.054;16.646;2022-10-16T06:27:40;22.33;;;17.95;;
35298;SDS011;21415;48.054;16.646;2022-10-16T06:30:06;24.38;;;18.48;;
35298;SDS011;21415;48.054;16.646;2022-10-16T06:32:32;23.77;;;18.30;;
35298;SDS011;21415;48.054;16.646;2022-10-16T06:34:58;24.63;;;17.30;;
35298;SDS011;21415;48.054;16.646;2022-10-16T06:37:24;22.67;;;16.83;;
35298;SDS011;21415;48.054;16.646;2022-10-16T06:39:50;20.92;;;16.42;;
35298;SDS011;21415;48.054;16.646;2022-10-16T06:42:19;20.30;;;15.90;;
35298;SDS011;21415;48.054;16.646;2022-10-16T06:44:45;22.13;;;17.90;;
35298;SDS011;21415;48.054;16.646;2022-10-16T06:47:10;19.95;;;15.80;;
35298;SDS011;21415;48.054;16.646;2022-10-16T06:49:36;23.02;;;17.42;;
35298;SDS011;21415;48.054;16.646;2022-10-16T06:52:02;23.45;;;17.40;;
35298;SDS011;21415;48.054;16.646;2022-10-16T06:54:28;22.35;;;16.98;;
35298;SDS011;21415;48.054;16.646;2022-10-16T06:56:54;20.33;;;16.33;;
35298;SDS011;21415;48.054;16.646;2022-10-16T06:59:20;19.95;;;15.18;;
35298;SDS011;21415;48.054;16.646;2022-10-16T07:06:37;25.05;;;17.67;;
35298;SDS011;21415;48.054;16.646;2022-10-16T07:09:05;20.00;;;16.08;;
35298;SDS011;21415;48.054;16.646;2022-10-16T07:11:33;21.92;;;16.75;;
35298;SDS011;21415;48.054;16.646;2022-10-16T07:13:59;21.58;;;16.42;;
35298;SDS011;21415;48.054;16.646;2022-10-16T07:16:26;19.38;;;15.65;;
35298;SDS011;21415;48.054;16.646;2022-10-16T07:18:55;22.02;;;16.98;;
35298;SDS011;21415;48.054;16.646;2022-10-16T07:21:25;19.52;;;15.38;;
35298;SDS011;21415;48.054;16.646;2022-10-16T07:23:54;20.73;;;15.93;;
35298;SDS011;21415;48.054;16.646;2022-10-16T07:26:22;21.80;;;16.17;;
35298;SDS011;21415;48.054;16.646;2022-10-16T07:28:49;23.38;;;16.10;;
35298;SDS011;21415;48.054;16.646;2022-10-16T07:31:15;21.95;;;16.83;;
35298;SDS011;21415;48.054;16.646;2022-10-16T07:33:43;20.95;;;16.63;;
35298;SDS011;21415;48.054;16.646;2022-10-16T07:36:13;24.75;;;17.85;;
35298;SDS011;21415;48.054;16.646;2022-10-16T07:38:40;19.40;;;15.63;;
35298;SDS011;21415;48.054;16.646;2022-10-16T07:41:08;18.20;;;15.52;;
35298;SDS011;21415;48.054;16.646;2022-10-16T07:43:38;20.33;;;17.90;;
35298;SDS011;21415;48.054;16.646;2022-10-16T07:46:04;22.80;;;17.98;;
35298;SDS011;21415;48.054;16.646;2022-10-16T07:48:31;22.10;;;18.35;;
35298;SDS011;21415;48.054;16.646;2022-10-16T07:50:59;21.92;;;18.55;;
35298;SDS011;21415;48.054;16.646;2022-10-16T07:53:25;23.35;;;18.70;;
35298;SDS011;21415;48.054;16.646;2022-10-16T07:55:52;23.50;;;18.45;;
35298;SDS011;21415;48.054;16.646;2022-10-16T07:58:22;23.45;;;18.45;;
35298;SDS011;21415;48.054;16.646;2022-10-16T08:00:48;23.48;;;19.33;;
35298;SDS011;21415;48.054;16.646;2022-10-16T08:03:14;24.88;;;18.42;;
35298;SDS011;21415;48.054;16.646;2022-10-16T08:05:39;22.50;;;17.52;;
35298;SDS011;21415;48.054;16.646;2022-10-16T08:08:05;22.98;;;18.45;;
35298;SDS011;21415;48.054;16.646;2022-10-16T08:10:31;25.15;;;18.17;;
35298;SDS011;21415;48.054;16.646;2022-10-16T08:12:57;22.90;;;19.13;;
35298;SDS011;21415;48.054;16.646;2022-10-16T08:15:23;22.48;;;18.40;;
35298;SDS011;21415;48.054;16.646;2022-10-16T08:17:58;20.48;;;17.38;;
35298;SDS011;21415;48.054;16.646;2022-10-16T08:20:28;24.08;;;19.02;;
35298;SDS011;21415;48.054;16.646;2022-10-16T08:22:55;20.27;;;17.42;;
35298;SDS011;21415;48.054;16.646;2022-10-16T08:25:21;23.45;;;17.83;;
35298;SDS011;21415;48.054;16.646;2022-10-16T08:27:48;22.20;;;17.42;;
35298;SDS011;21415;48.054;16.646;2022-10-16T08:30:14;21.75;;;16.55;;
35298;SDS011;21415;48.054;16.646;2022-10-16T08:32:40;23.08;;;17.15;;
35298;SDS011;21415;48.054;16.646;2022-10-16T08:35:09;23.77;;;19.15;;
35298;SDS011;21415;48.054;16.646;2022-10-16T08:37:36;23.70;;;18.38;;
35298;SDS011;21415;48.054;16.646;2022-10-16T08:40:03;19.77;;;17.08;;
35298;SDS011;21415;48.054;16.646;2022-10-16T08:47:49;19.35;;;16.77;;
35298;SDS011;21415;48.054;16.646;2022-10-16T08:50:21;21.42;;;17.85;;
35298;SDS011;21415;48.054;16.646;2022-10-16T08:52:50;22.10;;;17.92;;
35298;SDS011;21415;48.054;16.646;2022-10-16T08:55:28;20.30;;;17.50;;
35298;SDS011;21415;48.054;16.646;2022-10-16T08:57:59;21.38;;;17.58;;
35298;SDS011;21415;48.054;16.646;2022-10-16T09:00:26;26.25;;;19.48;;
35298;SDS011;21415;48.054;16.646;2022-10-16T09:02:54;21.73;;;18.88;;
35298;SDS011;21415;48.054;16.646;2022-10-16T09:08:19;24.98;;;19.58;;
35298;SDS011;21415;48.054;16.646;2022-10-16T09:11:07;22.88;;;19.55;;
35298;SDS011;21415;48.054;16.646;2022-10-16T09:16:18;26.95;;;19.88;;
35298;SDS011;21415;48.054;16.646;2022-10-16T09:18:51;24.42;;;20.23;;
35298;SDS011;21415;48.054;16.646;2022-10-16T09:21:29;25.85;;;20.48;;
35298;SDS011;21415;48.054;16.646;2022-10-16T09:23:57;23.75;;;20.80;;
35298;SDS011;21415;48.054;16.646;2022-10-16T09:26:25;27.60;;;20.30;;
35298;SDS011;21415;48.054;16.646;2022-10-16T09:28:54;23.98;;;20.05;;
35298;SDS011;21415;48.054;16.646;2022-10-16T09:31:20;25.88;;;21.15;;
35298;SDS011;21415;48.054;16.646;2022-10-16T09:33:55;24.17;;;19.73;;
35298;SDS011;21415;48.054;16.646;2022-10-16T09:36:25;24.42;;;20.35;;
35298;SDS011;21415;48.054;16.646;2022-10-16T09:39:03;27.63;;;20.70;;
35298;SDS011;21415;48.054;16.646;2022-10-16T09:41:33;25.30;;;21.27;;
35298;SDS011;21415;48.054;16.646;2022-10-16T09:44:01;24.67;;;20.05;;
35298;SDS011;21415;48.054;16.646;2022-10-16T09:48:56;24.85;;;20.70;;
35298;SDS011;21415;48.054;16.646;2022-10-16T09:53:56;26.05;;;20.55;;
35298;SDS011;21415;48.054;16.646;2022-10-16T09:56:29;24.75;;;19.80;;
35298;SDS011;21415;48.054;16.646;2022-10-16T09:59:03;25.73;;;21.70;;
35298;SDS011;21415;48.054;16.646;2022-10-16T10:01:36;27.98;;;22.77;;
35298;SDS011;21415;48.054;16.646;2022-10-16T10:04:05;26.90;;;21.70;;
35298;SDS011;21415;48.054;16.646;2022-10-16T10:06:35;25.27;;;21.60;;
35298;SDS011;21415;48.054;16.646;2022-10-16T10:09:24;25.88;;;22.60;;
35298;SDS011;21415;48.054;16.646;2022-10-16T10:11:53;25.33;;;21.90;;
35298;SDS011;21415;48.054;16.646;2022-10-16T10:14:22;27.88;;;22.92;;
35298;SDS011;21415;48.054;16.646;2022-10-16T10:17:06;25.92;;;21.65;;
35298;SDS011;21415;48.054;16.646;2022-10-16T10:19:39;29.38;;;24.08;;
35298;SDS011;21415;48.054;16.646;2022-10-16T10:30:30;25.05;;;21.55;;
35298;SDS011;21415;48.054;16.646;2022-10-16T10:50:43;29.08;;;22.30;;
35298;SDS011;21415;48.054;16.646;2022-10-16T10:56:22;30.05;;;23.17;;
35298;SDS011;21415;48.054;16.646;2022-10-16T11:07:00;31.98;;;25.40;;
35298;SDS011;21415;48.054;16.646;2022-10-16T11:09:43;31.08;;;24.00;;
35298;SDS011;21415;48.054;16.646;2022-10-16T11:12:24;29.65;;;23.92;;
35298;SDS011;21415;48.054;16.646;2022-10-16T11:17:25;27.92;;;24.38;;
35298;SDS011;21415;48.054;16.646;2022-10-16T11:22:42;27.17;;;23.85;;
35298;SDS011;21415;48.054;16.646;2022-10-16T11:25:14;29.00;;;23.90;;
35298;SDS011;21415;48.054;16.646;2022-10-16T11:27:50;30.75;;;25.02;;
35298;SDS011;21415;48.054;16.646;2022-10-16T11:30:27;30.13;;;24.30;;
35298;SDS011;21415;48.054;16.646;2022-10-16T11:33:57;29.17;;;23.50;;
35298;SDS011;21415;48.054;16.646;2022-10-16T11:41:33;24.85;;;21.42;;
35298;SDS011;21415;48.054;16.646;2022-10-16T11:44:14;26.45;;;21.38;;
35298;SDS011;21415;48.054;16.646;2022-10-16T11:49:30;26.60;;;22.20;;
35298;SDS011;21415;48.054;16.646;2022-10-16T11:54:32;25.63;;;22.83;;
35298;SDS011;21415;48.054;16.646;2022-10-16T11:57:09;29.08;;;22.38;;
35298;SDS011;21415;48.054;16.646;2022-10-16T11:59:45;27.80;;;23.13;;
35298;SDS011;21415;48.054;16.646;2022-10-16T12:05:09;26.13;;;21.55;;
35298;SDS011;21415;48.054;16.646;2022-10-16T12:08:13;27.08;;;22.42;;
35298;SDS011;21415;48.054;16.646;2022-10-16T12:10:41;27.40;;;22.52;;
35298;SDS011;21415;48.054;16.646;2022-10-16T12:16:49;29.27;;;21.55;;
35298;SDS011;21415;48.054;16.646;2022-10-16T12:18:49;25.15;;;21.67;;
35298;SDS011;21415;48.054;16.646;2022-10-16T12:21:30;25.77;;;22.58;;
35298;SDS011;21415;48.054;16.646;2022-10-16T12:23:58;23.67;;;20.73;;
35298;SDS011;21415;48.054;16.646;2022-10-16T12:26:26;25.58;;;21.85;;
35298;SDS011;21415;48.054;16.646;2022-10-16T12:28:55;24.90;;;21.73;;
35298;SDS011;21415;48.054;16.646;2022-10-16T12:31:23;26.10;;;22.70;;
35298;SDS011;21415;48.054;16.646;2022-10-16T12:34:03;25.15;;;21.30;;
35298;SDS011;21415;48.054;16.646;2022-10-16T12:36:30;23.77;;;21.25;;
35298;SDS011;21415;48.054;16.646;2022-10-16T12:38:57;25.27;;;21.38;;
35298;SDS011;21415;48.054;16.646;2022-10-16T12:41:34;24.45;;;21.45;;
35298;SDS011;21415;48.054;16.646;2022-10-16T12:44:04;23.58;;;20.63;;
35298;SDS011;21415;48.054;16.646;2022-10-16T12:46:46;24.55;;;20.67;;
35298;SDS011;21415;48.054;16.646;2022-10-16T12:51:37;25.98;;;20.30;;
35298;SDS011;21415;48.054;16.646;2022-10-16T12:54:10;24.08;;;20.58;;
35298;SDS011;21415;48.054;16.646;2022-10-16T12:56:58;24.02;;;20.00;;
35298;SDS011;21415;48.054;16.646;2022-10-16T13:05:14;22.42;;;19.73;;
35298;SDS011;21415;48.054;16.646;2022-10-16T13:07:52;21.95;;;19.38;;
35298;SDS011;21415;48.054;16.646;2022-10-16T13:10:41;20.58;;;18.38;;
35298;SDS011;21415;48.054;16.646;2022-10-16T13:24:49;21.83;;;19.30;;
35298;SDS011;21415;48.054;16.646;2022-10-16T13:30:25;18.20;;;16.30;;
35298;SDS011;21415;48.054;16.646;2022-10-16T13:35:32;20.00;;;17.85;;
35298;SDS011;21415;48.054;16.646;2022-10-16T13:38:03;21.25;;;18.52;;
35298;SDS011;21415;48.054;16.646;2022-10-16T13:40:30;19.92;;;17.10;;
35298;SDS011;21415;48.054;16.646;2022-10-16T13:42:59;21.55;;;17.80;;
35298;SDS011;21415;48.054;16.646;2022-10-16T13:45:25;19.27;;;17.33;;
35298;SDS011;21415;48.054;16.646;2022-10-16T13:48:04;20.00;;;17.90;;
35298;SDS011;21415;48.054;16.646;2022-10-16T13:50:31;21.50;;;18.83;;
35298;SDS011;21415;48.054;16.646;2022-10-16T13:53:06;25.05;;;19.10;;
35298;SDS011;21415;48.054;16.646;2022-10-16T13:55:37;20.90;;;18.50;;
35298;SDS011;21415;48.054;16.646;2022-10-16T13:58:13;21.58;;;17.95;;
35298;SDS011;21415;48.054;16.646;2022-10-16T14:00:40;20.75;;;17.52;;
35298;SDS011;21415;48.054;16.646;2022-10-16T14:03:18;19.17;;;17.17;;
35298;SDS011;21415;48.054;16.646;2022-10-16T14:05:52;18.13;;;16.23;;
35298;SDS011;21415;48.054;16.646;2022-10-16T14:08:24;17.73;;;15.85;;
35298;SDS011;21415;48.054;16.646;2022-10-16T14:10:52;22.63;;;16.08;;
35298;SDS011;21415;48.054;16.646;2022-10-16T14:13:54;21.83;;;19.55;;
35298;SDS011;21415;48.054;16.646;2022-10-16T14:16:17;18.85;;;16.98;;
35298;SDS011;21415;48.054;16.646;2022-10-16T14:18:48;18.13;;;15.90;;
35298;SDS011;21415;48.054;16.646;2022-10-16T14:21:31;17.40;;;15.50;;
35298;SDS011;21415;48.054;16.646;2022-10-16T14:23:59;17.95;;;15.98;;
35298;SDS011;21415;48.054;16.646;2022-10-16T14:26:40;18.15;;;15.25;;
35298;SDS011;21415;48.054;16.646;2022-10-16T14:29:14;17.27;;;15.32;;
35298;SDS011;21415;48.054;16.646;2022-10-16T14:31:42;18.67;;;15.63;;
35298;SDS011;21415;48.054;16.646;2022-10-16T14:34:30;17.75;;;15.75;;
35298;SDS011;21415;48.054;16.646;2022-10-16T14:37:05;17.85;;;14.55;;
35298;SDS011;21415;48.054;16.646;2022-10-16T14:39:32;17.77;;;15.57;;
35298;SDS011;21415;48.054;16.646;2022-10-16T14:41:59;16.90;;;14.93;;
35298;SDS011;21415;48.054;16.646;2022-10-16T14:44:28;17.13;;;15.30;;
35298;SDS011;21415;48.054;16.646;2022-10-16T14:46:57;18.00;;;15.23;;
35298;SDS011;21415;48.054;16.646;2022-10-16T14:49:31;17.23;;;15.40;;
35298;SDS011;21415;48.054;16.646;2022-10-16T14:51:57;17.77;;;15.30;;
35298;SDS011;21415;48.054;16.646;2022-10-16T14:54:23;16.23;;;14.50;;
35298;SDS011;21415;48.054;16.646;2022-10-16T14:56:58;19.05;;;15.23;;
35298;SDS011;21415;48.054;16.646;2022-10-16T14:59:32;16.63;;;14.80;;
35298;SDS011;21415;48.054;16.646;2022-10-16T15:02:25;15.65;;;14.00;;
35298;SDS011;21415;48.054;16.646;2022-10-16T15:04:50;15.00;;;13.40;;
35298;SDS011;21415;48.054;16.646;2022-10-16T15:07:16;16.63;;;13.93;;
35298;SDS011;21415;48.054;16.646;2022-10-16T15:09:42;16.33;;;14.57;;
35298;SDS011;21415;48.054;16.646;2022-10-16T15:12:07;16.92;;;14.52;;
35298;SDS011;21415;48.054;16.646;2022-10-16T15:14:33;16.38;;;14.23;;
35298;SDS011;21415;48.054;16.646;2022-10-16T15:16:59;15.38;;;13.23;;
35298;SDS011;21415;48.054;16.646;2022-10-16T15:19:25;16.23;;;14.25;;
35298;SDS011;21415;48.054;16.646;2022-10-16T15:21:50;17.15;;;14.07;;
35298;SDS011;21415;48.054;16.646;2022-10-16T15:24:17;17.08;;;13.95;;
35298;SDS011;21415;48.054;16.646;2022-10-16T15:29:11;13.48;;;12.07;;
35298;SDS011;21415;48.054;16.646;2022-10-16T15:31:37;15.93;;;13.80;;
35298;SDS011;21415;48.054;16.646;2022-10-16T15:36:34;13.98;;;12.50;;
35298;SDS011;21415;48.054;16.646;2022-10-16T15:39:20;16.27;;;14.07;;
35298;SDS011;21415;48.054;16.646;2022-10-16T15:41:46;15.50;;;13.52;;
35298;SDS011;21415;48.054;16.646;2022-10-16T15:44:19;18.40;;;14.20;;
35298;SDS011;21415;48.054;16.646;2022-10-16T15:46:45;15.43;;;13.82;;
35298;SDS011;21415;48.054;16.646;2022-10-16T15:49:11;16.20;;;14.50;;
35298;SDS011;21415;48.054;16.646;2022-10-16T15:51:38;17.88;;;14.38;;
35298;SDS011;21415;48.054;16.646;2022-10-16T15:54:05;18.15;;;15.02;;
35298;SDS011;21415;48.054;16.646;2022-10-16T15:56:31;15.25;;;13.60;;
35298;SDS011;21415;48.054;16.646;2022-10-16T15:58:58;22.08;;;17.70;;
35298;SDS011;21415;48.054;16.646;2022-10-16T16:01:25;18.40;;;15.95;;
35298;SDS011;21415;48.054;16.646;2022-10-16T16:03:52;18.10;;;15.77;;
35298;SDS011;21415;48.054;16.646;2022-10-16T16:06:19;17.98;;;15.80;;
35298;SDS011;21415;48.054;16.646;2022-10-16T16:08:45;17.70;;;15.05;;
35298;SDS011;21415;48.054;16.646;2022-10-16T16:11:12;18.00;;;15.75;;
35298;SDS011;21415;48.054;16.646;2022-10-16T16:13:39;17.05;;;15.15;;
35298;SDS011;21415;48.054;16.646;2022-10-16T16:16:06;16.17;;;14.38;;
35298;SDS011;21415;48.054;16.646;2022-10-16T16:18:34;17.40;;;14.75;;
35298;SDS011;21415;48.054;16.646;2022-10-16T16:21:01;16.90;;;14.75;;
35298;SDS011;21415;48.054;16.646;2022-10-16T16:23:27;18.20;;;14.30;;
35298;SDS011;21415;48.054;16.646;2022-10-16T16:26:03;18.30;;;14.82;;
35298;SDS011;21415;48.054;16.646;2022-10-16T16:28:35;15.88;;;13.88;;
35298;SDS011;21415;48.054;16.646;2022-10-16T16:33:27;17.77;;;13.20;;
35298;SDS011;21415;48.054;16.646;2022-10-16T16:36:04;18.30;;;13.77;;
35298;SDS011;21415;48.054;16.646;2022-10-16T16:38:31;15.05;;;12.90;;
35298;SDS011;21415;48.054;16.646;2022-10-16T16:40:58;17.10;;;13.20;;
35298;SDS011;21415;48.054;16.646;2022-10-16T16:43:24;15.13;;;13.20;;
35298;SDS011;21415;48.054;16.646;2022-10-16T16:45:51;19.70;;;13.70;;